Wax, Kentucky
Current Conditions -  °F | °C
As of 12:35 AM on Friday 28 Nov 2014 (Local Time) from KGLW Reporting Station
Clear Clear  
Wind Chill: 21°   Ceiling: Unl
Heat Index: 21°   Visibility: 10mi
Dew Point: 17°   Wind: 0mph
Humidity: 85%   Direction: NA
Pressure: 30.43"   Gusts: NA
Location:  37.4262°N, 86.1465°W
Report Text: KGLW 280635Z AUTO 00000KT 10SM CLR M06/M08 A3043 RMK AO2 T10601082
Loading
Personal Weather Stations






























Interactive Weather Map New forecast layout! Learn more

10-Day Weather Forecast

Advertisements
Track Severe Weather on mobile